sensor_id;sensor_type;location;lat;lon;timestamp;temperature;humidity
47174;DHT22;36730;49.036;9.094;2023-02-15T00:01:34;23.10;47.30
47174;DHT22;36730;49.036;9.094;2023-02-15T00:03:59;23.10;47.30
47174;DHT22;36730;49.036;9.094;2023-02-15T00:06:25;23.10;47.30
47174;DHT22;36730;49.036;9.094;2023-02-15T00:08:50;23.10;47.40
47174;DHT22;36730;49.036;9.094;2023-02-15T00:11:17;23.10;47.30
47174;DHT22;36730;49.036;9.094;2023-02-15T00:14:04;23.10;48.00
47174;DHT22;36730;49.036;9.094;2023-02-15T00:16:29;23.10;47.30
47174;DHT22;36730;49.036;9.094;2023-02-15T00:18:55;23.10;47.30
47174;DHT22;36730;49.036;9.094;2023-02-15T00:21:20;23.10;47.20
47174;DHT22;36730;49.036;9.094;2023-02-15T00:23:46;23.10;47.10
47174;DHT22;36730;49.036;9.094;2023-02-15T00:26:11;23.00;47.30
47174;DHT22;36730;49.036;9.094;2023-02-15T00:28:37;23.00;47.30
47174;DHT22;36730;49.036;9.094;2023-02-15T00:31:06;23.00;47.20
47174;DHT22;36730;49.036;9.094;2023-02-15T00:33:31;23.00;47.20
47174;DHT22;36730;49.036;9.094;2023-02-15T00:36:00;23.00;47.30
47174;DHT22;36730;49.036;9.094;2023-02-15T00:38:26;23.00;47.30
47174;DHT22;36730;49.036;9.094;2023-02-15T00:40:53;23.00;47.30
47174;DHT22;36730;49.036;9.094;2023-02-15T00:43:18;23.00;47.20
47174;DHT22;36730;49.036;9.094;2023-02-15T00:45:44;23.10;47.30
47174;DHT22;36730;49.036;9.094;2023-02-15T00:48:10;23.00;47.20
47174;DHT22;36730;49.036;9.094;2023-02-15T00:50:35;23.00;47.20
47174;DHT22;36730;49.036;9.094;2023-02-15T00:53:01;23.00;47.20
47174;DHT22;36730;49.036;9.094;2023-02-15T00:55:26;23.00;47.00
47174;DHT22;36730;49.036;9.094;2023-02-15T00:57:52;23.00;47.10
47174;DHT22;36730;49.036;9.094;2023-02-15T01:00:17;23.00;47.20
47174;DHT22;36730;49.036;9.094;2023-02-15T01:02:43;23.00;47.00
47174;DHT22;36730;49.036;9.094;2023-02-15T01:05:08;23.00;47.00
47174;DHT22;36730;49.036;9.094;2023-02-15T01:07:34;23.00;47.10
47174;DHT22;36730;49.036;9.094;2023-02-15T01:09:59;23.00;47.00
47174;DHT22;36730;49.036;9.094;2023-02-15T01:12:24;23.00;47.20
47174;DHT22;36730;49.036;9.094;2023-02-15T01:14:50;23.00;47.10
47174;DHT22;36730;49.036;9.094;2023-02-15T01:17:15;23.00;47.20
47174;DHT22;36730;49.036;9.094;2023-02-15T01:19:41;23.00;47.10
47174;DHT22;36730;49.036;9.094;2023-02-15T01:22:06;23.00;47.00
47174;DHT22;36730;49.036;9.094;2023-02-15T01:24:32;23.00;47.70
47174;DHT22;36730;49.036;9.094;2023-02-15T01:26:57;23.00;47.10
47174;DHT22;36730;49.036;9.094;2023-02-15T01:29:23;23.00;47.20
47174;DHT22;36730;49.036;9.094;2023-02-15T01:31:48;23.00;47.00
47174;DHT22;36730;49.036;9.094;2023-02-15T01:34:14;23.00;47.00
47174;DHT22;36730;49.036;9.094;2023-02-15T01:36:39;22.90;47.10
47174;DHT22;36730;49.036;9.094;2023-02-15T01:39:05;22.90;47.00
47174;DHT22;36730;49.036;9.094;2023-02-15T01:41:30;23.00;47.10
47174;DHT22;36730;49.036;9.094;2023-02-15T01:43:57;23.00;47.10
47174;DHT22;36730;49.036;9.094;2023-02-15T01:46:33;23.00;47.10
47174;DHT22;36730;49.036;9.094;2023-02-15T01:49:08;23.00;47.10
47174;DHT22;36730;49.036;9.094;2023-02-15T01:51:36;23.00;47.10
47174;DHT22;36730;49.036;9.094;2023-02-15T01:54:05;23.00;47.00
47174;DHT22;36730;49.036;9.094;2023-02-15T01:56:35;23.00;47.00
47174;DHT22;36730;49.036;9.094;2023-02-15T01:59:03;23.00;46.90
47174;DHT22;36730;49.036;9.094;2023-02-15T02:01:29;23.00;46.90
47174;DHT22;36730;49.036;9.094;2023-02-15T02:03:57;22.90;46.90
47174;DHT22;36730;49.036;9.094;2023-02-15T02:06:24;22.90;47.00
47174;DHT22;36730;49.036;9.094;2023-02-15T02:08:51;22.90;47.00
47174;DHT22;36730;49.036;9.094;2023-02-15T02:11:16;22.90;47.00
47174;DHT22;36730;49.036;9.094;2023-02-15T02:13:43;22.90;46.90
47174;DHT22;36730;49.036;9.094;2023-02-15T02:16:18;23.00;47.00
47174;DHT22;36730;49.036;9.094;2023-02-15T02:26:40;22.90;47.00
47174;DHT22;36730;49.036;9.094;2023-02-15T02:34:25;22.90;47.00
47174;DHT22;36730;49.036;9.094;2023-02-15T02:47:13;22.90;47.00
47174;DHT22;36730;49.036;9.094;2023-02-15T02:49:41;22.90;46.90
47174;DHT22;36730;49.036;9.094;2023-02-15T02:54:52;22.90;46.90
47174;DHT22;36730;49.036;9.094;2023-02-15T02:57:18;22.90;46.90
47174;DHT22;36730;49.036;9.094;2023-02-15T02:59:44;22.90;46.80
47174;DHT22;36730;49.036;9.094;2023-02-15T03:02:16;22.90;46.90
47174;DHT22;36730;49.036;9.094;2023-02-15T03:04:46;22.90;46.90
47174;DHT22;36730;49.036;9.094;2023-02-15T03:07:16;22.90;46.70
47174;DHT22;36730;49.036;9.094;2023-02-15T03:09:48;22.90;46.70
47174;DHT22;36730;49.036;9.094;2023-02-15T03:12:24;22.90;46.60
47174;DHT22;36730;49.036;9.094;2023-02-15T03:14:53;22.90;46.90
47174;DHT22;36730;49.036;9.094;2023-02-15T03:17:20;22.90;46.90
47174;DHT22;36730;49.036;9.094;2023-02-15T03:19:47;22.90;46.80
47174;DHT22;36730;49.036;9.094;2023-02-15T03:22:17;22.90;46.70
47174;DHT22;36730;49.036;9.094;2023-02-15T03:24:59;22.90;46.70
47174;DHT22;36730;49.036;9.094;2023-02-15T03:27:32;22.90;46.80
47174;DHT22;36730;49.036;9.094;2023-02-15T03:29:59;22.90;46.60
47174;DHT22;36730;49.036;9.094;2023-02-15T03:32:25;22.90;46.80
47174;DHT22;36730;49.036;9.094;2023-02-15T03:34:53;22.90;46.80
47174;DHT22;36730;49.036;9.094;2023-02-15T03:37:23;22.90;46.80
47174;DHT22;36730;49.036;9.094;2023-02-15T03:39:53;22.90;46.80
47174;DHT22;36730;49.036;9.094;2023-02-15T03:42:23;22.90;46.80
47174;DHT22;36730;49.036;9.094;2023-02-15T03:47:19;22.90;46.80
47174;DHT22;36730;49.036;9.094;2023-02-15T03:49:56;22.90;46.80
47174;DHT22;36730;49.036;9.094;2023-02-15T03:52:23;22.90;46.70
47174;DHT22;36730;49.036;9.094;2023-02-15T03:54:50;22.90;46.60
47174;DHT22;36730;49.036;9.094;2023-02-15T03:57:17;22.90;46.70
47174;DHT22;36730;49.036;9.094;2023-02-15T04:00:04;22.90;46.60
47174;DHT22;36730;49.036;9.094;2023-02-15T04:05:21;22.90;46.60
47174;DHT22;36730;49.036;9.094;2023-02-15T04:07:47;22.90;46.60
47174;DHT22;36730;49.036;9.094;2023-02-15T04:10:12;22.90;46.70
47174;DHT22;36730;49.036;9.094;2023-02-15T04:12:56;22.90;46.70
47174;DHT22;36730;49.036;9.094;2023-02-15T04:15:22;22.90;46.50
47174;DHT22;36730;49.036;9.094;2023-02-15T04:18:06;22.90;46.60
47174;DHT22;36730;49.036;9.094;2023-02-15T04:20:31;23.00;46.50
47174;DHT22;36730;49.036;9.094;2023-02-15T04:23:15;23.00;46.80
47174;DHT22;36730;49.036;9.094;2023-02-15T04:26:02;23.00;46.70
47174;DHT22;36730;49.036;9.094;2023-02-15T04:28:28;23.00;46.40
47174;DHT22;36730;49.036;9.094;2023-02-15T04:30:54;23.00;46.40
47174;DHT22;36730;49.036;9.094;2023-02-15T04:33:19;23.10;46.50
47174;DHT22;36730;49.036;9.094;2023-02-15T04:35:45;23.10;46.70
47174;DHT22;36730;49.036;9.094;2023-02-15T04:38:10;23.20;46.90
47174;DHT22;36730;49.036;9.094;2023-02-15T04:40:35;23.20;46.80
47174;DHT22;36730;49.036;9.094;2023-02-15T04:43:01;23.20;46.90
47174;DHT22;36730;49.036;9.094;2023-02-15T04:45:26;23.20;46.70
47174;DHT22;36730;49.036;9.094;2023-02-15T04:47:52;23.30;46.70
47174;DHT22;36730;49.036;9.094;2023-02-15T04:50:18;23.30;46.60
47174;DHT22;36730;49.036;9.094;2023-02-15T04:52:44;23.30;46.80
47174;DHT22;36730;49.036;9.094;2023-02-15T04:55:09;23.30;46.70
47174;DHT22;36730;49.036;9.094;2023-02-15T04:57:35;23.40;46.80
47174;DHT22;36730;49.036;9.094;2023-02-15T05:00:00;23.40;46.70
47174;DHT22;36730;49.036;9.094;2023-02-15T05:02:26;23.40;46.80
47174;DHT22;36730;49.036;9.094;2023-02-15T05:04:51;23.40;46.80
47174;DHT22;36730;49.036;9.094;2023-02-15T05:07:17;23.40;47.00
47174;DHT22;36730;49.036;9.094;2023-02-15T05:09:43;23.50;46.70
47174;DHT22;36730;49.036;9.094;2023-02-15T05:12:08;23.50;47.10
47174;DHT22;36730;49.036;9.094;2023-02-15T05:14:34;23.50;46.60
47174;DHT22;36730;49.036;9.094;2023-02-15T05:16:59;23.60;47.10
47174;DHT22;36730;49.036;9.094;2023-02-15T05:19:26;23.60;47.20
47174;DHT22;36730;49.036;9.094;2023-02-15T05:21:52;23.60;46.70
47174;DHT22;36730;49.036;9.094;2023-02-15T05:24:17;23.60;47.10
47174;DHT22;36730;49.036;9.094;2023-02-15T05:27:02;23.70;47.60
47174;DHT22;36730;49.036;9.094;2023-02-15T05:29:46;23.70;46.80
47174;DHT22;36730;49.036;9.094;2023-02-15T05:32:12;23.70;47.30
47174;DHT22;36730;49.036;9.094;2023-02-15T05:34:38;23.80;47.30
47174;DHT22;36730;49.036;9.094;2023-02-15T05:37:03;23.80;47.50
47174;DHT22;36730;49.036;9.094;2023-02-15T05:39:29;23.80;47.30
47174;DHT22;36730;49.036;9.094;2023-02-15T05:41:57;23.80;47.50
47174;DHT22;36730;49.036;9.094;2023-02-15T05:44:23;23.80;47.20
47174;DHT22;36730;49.036;9.094;2023-02-15T05:46:49;23.80;47.30
47174;DHT22;36730;49.036;9.094;2023-02-15T05:49:14;23.80;46.90
47174;DHT22;36730;49.036;9.094;2023-02-15T05:51:40;23.80;47.30
47174;DHT22;36730;49.036;9.094;2023-02-15T05:54:05;23.80;47.50
47174;DHT22;36730;49.036;9.094;2023-02-15T05:56:31;23.80;47.50
47174;DHT22;36730;49.036;9.094;2023-02-15T05:58:56;23.90;48.80
47174;DHT22;36730;49.036;9.094;2023-02-15T06:01:22;23.90;47.40
47174;DHT22;36730;49.036;9.094;2023-02-15T06:03:48;24.00;47.60
47174;DHT22;36730;49.036;9.094;2023-02-15T06:06:14;24.00;47.70
47174;DHT22;36730;49.036;9.094;2023-02-15T06:08:39;24.00;47.40
47174;DHT22;36730;49.036;9.094;2023-02-15T06:11:05;24.00;47.50
47174;DHT22;36730;49.036;9.094;2023-02-15T06:13:31;24.00;47.60
47174;DHT22;36730;49.036;9.094;2023-02-15T06:15:57;24.00;47.60
47174;DHT22;36730;49.036;9.094;2023-02-15T06:18:22;24.10;47.60
47174;DHT22;36730;49.036;9.094;2023-02-15T06:20:48;24.10;47.40
47174;DHT22;36730;49.036;9.094;2023-02-15T06:23:14;24.10;47.40
47174;DHT22;36730;49.036;9.094;2023-02-15T06:25:39;24.20;47.20
47174;DHT22;36730;49.036;9.094;2023-02-15T06:28:05;24.20;46.90
47174;DHT22;36730;49.036;9.094;2023-02-15T06:30:30;24.20;47.60
47174;DHT22;36730;49.036;9.094;2023-02-15T06:32:55;24.20;47.10
47174;DHT22;36730;49.036;9.094;2023-02-15T06:35:21;24.20;47.50
47174;DHT22;36730;49.036;9.094;2023-02-15T06:37:47;24.30;48.10
47174;DHT22;36730;49.036;9.094;2023-02-15T06:40:12;24.20;48.30
47174;DHT22;36730;49.036;9.094;2023-02-15T06:42:38;24.20;48.60
47174;DHT22;36730;49.036;9.094;2023-02-15T06:45:04;24.20;48.30
47174;DHT22;36730;49.036;9.094;2023-02-15T06:47:29;24.20;48.30
47174;DHT22;36730;49.036;9.094;2023-02-15T06:49:55;24.30;49.50
47174;DHT22;36730;49.036;9.094;2023-02-15T06:52:20;24.30;51.30
47174;DHT22;36730;49.036;9.094;2023-02-15T06:54:46;24.30;49.70
47174;DHT22;36730;49.036;9.094;2023-02-15T06:57:11;24.40;47.40
47174;DHT22;36730;49.036;9.094;2023-02-15T06:59:37;24.30;48.00
47174;DHT22;36730;49.036;9.094;2023-02-15T07:02:02;24.30;47.50
47174;DHT22;36730;49.036;9.094;2023-02-15T07:04:28;24.20;43.40
47174;DHT22;36730;49.036;9.094;2023-02-15T07:06:55;24.10;47.50
47174;DHT22;36730;49.036;9.094;2023-02-15T07:09:20;24.10;48.10
47174;DHT22;36730;49.036;9.094;2023-02-15T07:11:46;24.00;46.70
47174;DHT22;36730;49.036;9.094;2023-02-15T07:14:30;24.00;46.10
47174;DHT22;36730;49.036;9.094;2023-02-15T07:16:56;24.00;46.80
47174;DHT22;36730;49.036;9.094;2023-02-15T07:19:21;24.00;47.40
47174;DHT22;36730;49.036;9.094;2023-02-15T07:21:47;24.00;47.70
47174;DHT22;36730;49.036;9.094;2023-02-15T07:24:12;24.00;47.60
47174;DHT22;36730;49.036;9.094;2023-02-15T07:26:38;24.10;47.50
47174;DHT22;36730;49.036;9.094;2023-02-15T07:29:03;24.10;47.40
47174;DHT22;36730;49.036;9.094;2023-02-15T07:31:29;24.20;47.90
47174;DHT22;36730;49.036;9.094;2023-02-15T07:33:55;24.20;51.00
47174;DHT22;36730;49.036;9.094;2023-02-15T07:36:20;24.20;48.40
47174;DHT22;36730;49.036;9.094;2023-02-15T07:38:45;24.20;48.70
47174;DHT22;36730;49.036;9.094;2023-02-15T07:41:12;24.20;47.90
47174;DHT22;36730;49.036;9.094;2023-02-15T07:43:39;24.30;48.20
47174;DHT22;36730;49.036;9.094;2023-02-15T07:46:10;24.30;48.60
47174;DHT22;36730;49.036;9.094;2023-02-15T07:48:37;24.30;48.90
47174;DHT22;36730;49.036;9.094;2023-02-15T07:51:04;24.40;48.80
47174;DHT22;36730;49.036;9.094;2023-02-15T07:53:30;24.40;48.50
47174;DHT22;36730;49.036;9.094;2023-02-15T07:55:59;24.40;49.40
47174;DHT22;36730;49.036;9.094;2023-02-15T07:58:25;24.40;51.30
47174;DHT22;36730;49.036;9.094;2023-02-15T08:01:10;24.40;50.20
47174;DHT22;36730;49.036;9.094;2023-02-15T08:03:35;24.40;49.10
47174;DHT22;36730;49.036;9.094;2023-02-15T08:06:01;24.40;49.00
47174;DHT22;36730;49.036;9.094;2023-02-15T08:08:27;24.50;49.20
47174;DHT22;36730;49.036;9.094;2023-02-15T08:11:06;24.50;49.10
47174;DHT22;36730;49.036;9.094;2023-02-15T08:13:51;24.50;49.10
47174;DHT22;36730;49.036;9.094;2023-02-15T08:18:45;24.60;49.60
47174;DHT22;36730;49.036;9.094;2023-02-15T08:21:10;24.60;50.30
47174;DHT22;36730;49.036;9.094;2023-02-15T08:23:36;24.60;54.20
47174;DHT22;36730;49.036;9.094;2023-02-15T08:26:04;24.60;50.80
47174;DHT22;36730;49.036;9.094;2023-02-15T08:28:30;24.60;50.60
47174;DHT22;36730;49.036;9.094;2023-02-15T08:30:55;24.70;57.50
47174;DHT22;36730;49.036;9.094;2023-02-15T08:33:20;24.70;50.40
47174;DHT22;36730;49.036;9.094;2023-02-15T08:35:46;24.70;54.10
47174;DHT22;36730;49.036;9.094;2023-02-15T08:38:12;24.70;52.60
47174;DHT22;36730;49.036;9.094;2023-02-15T08:40:37;24.70;51.10
47174;DHT22;36730;49.036;9.094;2023-02-15T08:43:03;24.70;49.90
47174;DHT22;36730;49.036;9.094;2023-02-15T08:45:28;24.70;50.80
47174;DHT22;36730;49.036;9.094;2023-02-15T08:47:54;24.70;51.60
47174;DHT22;36730;49.036;9.094;2023-02-15T08:50:19;24.70;51.50
47174;DHT22;36730;49.036;9.094;2023-02-15T08:52:45;24.60;58.30
47174;DHT22;36730;49.036;9.094;2023-02-15T08:55:10;24.60;58.20
47174;DHT22;36730;49.036;9.094;2023-02-15T08:57:36;24.50;48.30
47174;DHT22;36730;49.036;9.094;2023-02-15T09:00:02;24.50;47.70
47174;DHT22;36730;49.036;9.094;2023-02-15T09:02:29;24.40;45.80
47174;DHT22;36730;49.036;9.094;2023-02-15T09:04:55;24.20;48.10
47174;DHT22;36730;49.036;9.094;2023-02-15T09:07:20;24.20;48.10
47174;DHT22;36730;49.036;9.094;2023-02-15T09:09:46;24.10;45.60
47174;DHT22;36730;49.036;9.094;2023-02-15T09:12:11;24.20;45.80
47174;DHT22;36730;49.036;9.094;2023-02-15T09:14:37;24.20;44.90
47174;DHT22;36730;49.036;9.094;2023-02-15T09:17:02;24.20;44.80
47174;DHT22;36730;49.036;9.094;2023-02-15T09:19:28;24.20;46.00
47174;DHT22;36730;49.036;9.094;2023-02-15T09:21:54;24.20;44.90
47174;DHT22;36730;49.036;9.094;2023-02-15T09:24:20;24.30;46.20
47174;DHT22;36730;49.036;9.094;2023-02-15T09:26:46;24.30;49.20
47174;DHT22;36730;49.036;9.094;2023-02-15T09:29:12;24.30;47.70
47174;DHT22;36730;49.036;9.094;2023-02-15T09:31:42;24.30;47.50
47174;DHT22;36730;49.036;9.094;2023-02-15T09:34:09;24.40;46.90
47174;DHT22;36730;49.036;9.094;2023-02-15T09:36:36;24.40;48.50
47174;DHT22;36730;49.036;9.094;2023-02-15T09:39:10;24.50;47.70
47174;DHT22;36730;49.036;9.094;2023-02-15T09:44:13;24.60;49.10
47174;DHT22;36730;49.036;9.094;2023-02-15T09:49:12;24.60;48.30
47174;DHT22;36730;49.036;9.094;2023-02-15T09:54:19;24.70;48.40
47174;DHT22;36730;49.036;9.094;2023-02-15T09:56:50;24.70;49.70
47174;DHT22;36730;49.036;9.094;2023-02-15T10:12:08;24.50;46.80
47174;DHT22;36730;49.036;9.094;2023-02-15T10:27:29;24.50;45.00
47174;DHT22;36730;49.036;9.094;2023-02-15T10:30:10;24.50;45.00
47174;DHT22;36730;49.036;9.094;2023-02-15T10:33:24;24.60;45.60
47174;DHT22;36730;49.036;9.094;2023-02-15T10:35:37;24.60;45.40
47174;DHT22;36730;49.036;9.094;2023-02-15T10:38:09;24.60;45.80
47174;DHT22;36730;49.036;9.094;2023-02-15T10:43:49;24.70;47.60
47174;DHT22;36730;49.036;9.094;2023-02-15T10:46:11;24.70;45.80
47174;DHT22;36730;49.036;9.094;2023-02-15T10:51:22;24.80;47.30
47174;DHT22;36730;49.036;9.094;2023-02-15T10:53:57;24.70;44.60
47174;DHT22;36730;49.036;9.094;2023-02-15T10:59:01;24.50;43.70
47174;DHT22;36730;49.036;9.094;2023-02-15T11:01:40;24.40;44.50
47174;DHT22;36730;49.036;9.094;2023-02-15T11:06:32;24.20;44.20
47174;DHT22;36730;49.036;9.094;2023-02-15T11:09:17;24.30;44.70
47174;DHT22;36730;49.036;9.094;2023-02-15T11:11:48;24.10;39.80
47174;DHT22;36730;49.036;9.094;2023-02-15T11:14:15;23.90;41.60
47174;DHT22;36730;49.036;9.094;2023-02-15T11:16:44;23.90;42.90
47174;DHT22;36730;49.036;9.094;2023-02-15T11:19:11;23.90;47.50
47174;DHT22;36730;49.036;9.094;2023-02-15T11:21:45;24.00;46.20
47174;DHT22;36730;49.036;9.094;2023-02-15T11:24:21;24.00;44.30
47174;DHT22;36730;49.036;9.094;2023-02-15T11:26:57;24.10;44.00
47174;DHT22;36730;49.036;9.094;2023-02-15T11:29:31;24.10;44.10
47174;DHT22;36730;49.036;9.094;2023-02-15T11:34:48;24.20;44.20
47174;DHT22;36730;49.036;9.094;2023-02-15T11:37:16;24.20;43.70
47174;DHT22;36730;49.036;9.094;2023-02-15T11:39:43;24.30;46.70
47174;DHT22;36730;49.036;9.094;2023-02-15T11:42:11;24.30;45.20
47174;DHT22;36730;49.036;9.094;2023-02-15T11:47:15;24.40;44.40
47174;DHT22;36730;49.036;9.094;2023-02-15T11:49:41;24.40;46.30
47174;DHT22;36730;49.036;9.094;2023-02-15T11:52:07;24.40;47.20
47174;DHT22;36730;49.036;9.094;2023-02-15T11:54:36;24.50;47.20
47174;DHT22;36730;49.036;9.094;2023-02-15T11:57:05;24.50;46.30
47174;DHT22;36730;49.036;9.094;2023-02-15T11:59:36;24.60;47.00
47174;DHT22;36730;49.036;9.094;2023-02-15T12:02:02;24.60;47.20
47174;DHT22;36730;49.036;9.094;2023-02-15T12:04:38;24.60;44.90
47174;DHT22;36730;49.036;9.094;2023-02-15T12:10:02;24.70;45.20
47174;DHT22;36730;49.036;9.094;2023-02-15T12:12:33;24.70;45.00
47174;DHT22;36730;49.036;9.094;2023-02-15T12:15:00;24.80;44.80
47174;DHT22;36730;49.036;9.094;2023-02-15T12:17:27;24.80;45.00
47174;DHT22;36730;49.036;9.094;2023-02-15T12:19:55;24.80;45.10
47174;DHT22;36730;49.036;9.094;2023-02-15T12:22:22;24.80;46.90
47174;DHT22;36730;49.036;9.094;2023-02-15T12:24:49;24.90;47.90
47174;DHT22;36730;49.036;9.094;2023-02-15T12:27:17;24.90;46.80
47174;DHT22;36730;49.036;9.094;2023-02-15T12:29:45;24.90;48.70
47174;DHT22;36730;49.036;9.094;2023-02-15T12:32:16;24.90;46.80
47174;DHT22;36730;49.036;9.094;2023-02-15T12:34:43;25.00;46.00
47174;DHT22;36730;49.036;9.094;2023-02-15T12:37:32;25.00;45.70
47174;DHT22;36730;49.036;9.094;2023-02-15T12:40:00;25.00;45.80
47174;DHT22;36730;49.036;9.094;2023-02-15T12:42:27;25.00;45.90
47174;DHT22;36730;49.036;9.094;2023-02-15T12:47:25;25.10;47.40
47174;DHT22;36730;49.036;9.094;2023-02-15T12:52:48;25.20;45.90
47174;DHT22;36730;49.036;9.094;2023-02-15T12:57:43;25.20;46.50
47174;DHT22;36730;49.036;9.094;2023-02-15T13:02:49;25.30;47.60
47174;DHT22;36730;49.036;9.094;2023-02-15T13:05:22;25.30;48.10
47174;DHT22;36730;49.036;9.094;2023-02-15T13:07:53;25.30;47.40
47174;DHT22;36730;49.036;9.094;2023-02-15T13:10:23;25.40;46.80
47174;DHT22;36730;49.036;9.094;2023-02-15T13:12:49;25.40;46.60
47174;DHT22;36730;49.036;9.094;2023-02-15T13:15:23;25.40;46.90
47174;DHT22;36730;49.036;9.094;2023-02-15T13:17:49;25.50;47.00
47174;DHT22;36730;49.036;9.094;2023-02-15T13:20:19;25.50;48.30
47174;DHT22;36730;49.036;9.094;2023-02-15T13:22:48;25.60;47.70
47174;DHT22;36730;49.036;9.094;2023-02-15T13:27:42;25.60;48.70
47174;DHT22;36730;49.036;9.094;2023-02-15T13:30:20;25.60;48.90
47174;DHT22;36730;49.036;9.094;2023-02-15T13:32:48;25.70;48.80
47174;DHT22;36730;49.036;9.094;2023-02-15T13:35:15;25.70;49.40
47174;DHT22;36730;49.036;9.094;2023-02-15T13:40:18;25.70;48.40
47174;DHT22;36730;49.036;9.094;2023-02-15T13:42:55;25.80;48.80
47174;DHT22;36730;49.036;9.094;2023-02-15T13:47:56;25.80;47.50
47174;DHT22;36730;49.036;9.094;2023-02-15T13:55:36;25.80;49.20
47174;DHT22;36730;49.036;9.094;2023-02-15T14:08:58;25.90;48.80
47174;DHT22;36730;49.036;9.094;2023-02-15T14:11:39;25.90;47.80
47174;DHT22;36730;49.036;9.094;2023-02-15T14:14:17;26.00;48.80
47174;DHT22;36730;49.036;9.094;2023-02-15T14:16:52;26.00;48.20
47174;DHT22;36730;49.036;9.094;2023-02-15T14:21:56;26.10;47.90
47174;DHT22;36730;49.036;9.094;2023-02-15T14:24:33;26.10;47.90
47174;DHT22;36730;49.036;9.094;2023-02-15T14:32:04;26.20;48.40
47174;DHT22;36730;49.036;9.094;2023-02-15T14:34:46;26.20;49.30
47174;DHT22;36730;49.036;9.094;2023-02-15T14:37:14;26.20;49.40
47174;DHT22;36730;49.036;9.094;2023-02-15T14:39:56;26.20;49.90
47174;DHT22;36730;49.036;9.094;2023-02-15T14:42:53;26.20;49.60
47174;DHT22;36730;49.036;9.094;2023-02-15T14:48:04;26.30;50.50
47174;DHT22;36730;49.036;9.094;2023-02-15T14:50:38;26.30;49.70
47174;DHT22;36730;49.036;9.094;2023-02-15T14:56:04;26.30;48.90
47174;DHT22;36730;49.036;9.094;2023-02-15T14:58:30;26.30;47.60
47174;DHT22;36730;49.036;9.094;2023-02-15T15:00:55;26.30;47.00
47174;DHT22;36730;49.036;9.094;2023-02-15T15:03:29;26.10;43.90
47174;DHT22;36730;49.036;9.094;2023-02-15T15:05:55;25.90;43.30
47174;DHT22;36730;49.036;9.094;2023-02-15T15:08:55;25.70;42.20
47174;DHT22;36730;49.036;9.094;2023-02-15T15:13:58;25.40;41.70
47174;DHT22;36730;49.036;9.094;2023-02-15T15:19:02;25.10;43.00
47174;DHT22;36730;49.036;9.094;2023-02-15T15:29:41;25.10;46.20
47174;DHT22;36730;49.036;9.094;2023-02-15T15:32:07;25.20;46.30
47174;DHT22;36730;49.036;9.094;2023-02-15T15:34:43;25.30;45.30
47174;DHT22;36730;49.036;9.094;2023-02-15T15:37:37;25.30;45.20
47174;DHT22;36730;49.036;9.094;2023-02-15T15:45:24;25.40;46.40
47174;DHT22;36730;49.036;9.094;2023-02-15T15:50:40;25.50;45.50
47174;DHT22;36730;49.036;9.094;2023-02-15T15:53:06;25.50;47.10
47174;DHT22;36730;49.036;9.094;2023-02-15T15:55:39;25.60;46.40
47174;DHT22;36730;49.036;9.094;2023-02-15T15:58:06;25.60;45.90
47174;DHT22;36730;49.036;9.094;2023-02-15T16:00:34;25.70;46.00
47174;DHT22;36730;49.036;9.094;2023-02-15T16:03:00;25.70;46.70
47174;DHT22;36730;49.036;9.094;2023-02-15T16:05:25;25.70;51.50
47174;DHT22;36730;49.036;9.094;2023-02-15T16:07:51;25.70;46.50
47174;DHT22;36730;49.036;9.094;2023-02-15T16:12:45;25.70;48.30
47174;DHT22;36730;49.036;9.094;2023-02-15T16:17:40;25.70;47.10
47174;DHT22;36730;49.036;9.094;2023-02-15T16:20:11;25.70;46.90
47174;DHT22;36730;49.036;9.094;2023-02-15T16:22:39;25.70;47.50
47174;DHT22;36730;49.036;9.094;2023-02-15T16:25:13;25.70;47.10
47174;DHT22;36730;49.036;9.094;2023-02-15T16:27:42;25.80;47.30
47174;DHT22;36730;49.036;9.094;2023-02-15T16:32:45;25.80;47.00
47174;DHT22;36730;49.036;9.094;2023-02-15T16:35:17;25.70;47.40
47174;DHT22;36730;49.036;9.094;2023-02-15T16:37:43;25.80;47.00
47174;DHT22;36730;49.036;9.094;2023-02-15T16:42:57;25.80;47.20
47174;DHT22;36730;49.036;9.094;2023-02-15T16:45:25;25.80;47.40
47174;DHT22;36730;49.036;9.094;2023-02-15T16:47:53;25.80;47.20
47174;DHT22;36730;49.036;9.094;2023-02-15T16:50:24;25.80;48.00
47174;DHT22;36730;49.036;9.094;2023-02-15T16:52:51;25.80;48.50
47174;DHT22;36730;49.036;9.094;2023-02-15T16:55:21;25.70;48.30
47174;DHT22;36730;49.036;9.094;2023-02-15T16:57:47;25.70;49.50
47174;DHT22;36730;49.036;9.094;2023-02-15T17:00:20;25.70;48.90
47174;DHT22;36730;49.036;9.094;2023-02-15T17:05:20;25.70;49.90
47174;DHT22;36730;49.036;9.094;2023-02-15T17:10:39;25.70;47.70
47174;DHT22;36730;49.036;9.094;2023-02-15T17:13:16;25.60;47.90
47174;DHT22;36730;49.036;9.094;2023-02-15T17:18:26;25.60;48.30
47174;DHT22;36730;49.036;9.094;2023-02-15T17:20:53;25.60;48.30
47174;DHT22;36730;49.036;9.094;2023-02-15T17:23:28;25.60;48.20
47174;DHT22;36730;49.036;9.094;2023-02-15T17:25:55;25.60;47.70
47174;DHT22;36730;49.036;9.094;2023-02-15T17:28:24;25.60;48.80
47174;DHT22;36730;49.036;9.094;2023-02-15T17:30:50;25.50;48.00
47174;DHT22;36730;49.036;9.094;2023-02-15T17:33:21;25.50;47.80
47174;DHT22;36730;49.036;9.094;2023-02-15T17:36:07;25.50;48.20
47174;DHT22;36730;49.036;9.094;2023-02-15T17:38:34;25.40;48.00
47174;DHT22;36730;49.036;9.094;2023-02-15T17:41:00;25.40;48.60
47174;DHT22;36730;49.036;9.094;2023-02-15T17:43:25;25.40;48.40
47174;DHT22;36730;49.036;9.094;2023-02-15T17:45:51;25.40;48.10
47174;DHT22;36730;49.036;9.094;2023-02-15T17:48:21;25.40;48.10
47174;DHT22;36730;49.036;9.094;2023-02-15T17:50:46;25.30;48.10
47174;DHT22;36730;49.036;9.094;2023-02-15T17:53:12;25.20;48.50
47174;DHT22;36730;49.036;9.094;2023-02-15T17:55:38;25.20;48.50
47174;DHT22;36730;49.036;9.094;2023-02-15T17:58:08;25.10;48.70
47174;DHT22;36730;49.036;9.094;2023-02-15T18:00:35;25.10;48.70
47174;DHT22;36730;49.036;9.094;2023-02-15T18:03:19;25.10;48.90
47174;DHT22;36730;49.036;9.094;2023-02-15T18:06:04;25.00;48.60
47174;DHT22;36730;49.036;9.094;2023-02-15T18:08:48;24.90;48.90
47174;DHT22;36730;49.036;9.094;2023-02-15T18:11:32;24.80;49.00
47174;DHT22;36730;49.036;9.094;2023-02-15T18:14:05;24.80;49.10
47174;DHT22;36730;49.036;9.094;2023-02-15T18:16:34;24.70;49.20
47174;DHT22;36730;49.036;9.094;2023-02-15T18:19:01;24.70;49.20
47174;DHT22;36730;49.036;9.094;2023-02-15T18:21:26;24.70;49.50
47174;DHT22;36730;49.036;9.094;2023-02-15T18:23:52;24.60;49.50
47174;DHT22;36730;49.036;9.094;2023-02-15T18:26:19;24.60;49.50
47174;DHT22;36730;49.036;9.094;2023-02-15T18:28:45;24.50;49.80
47174;DHT22;36730;49.036;9.094;2023-02-15T18:31:10;24.50;49.70
47174;DHT22;36730;49.036;9.094;2023-02-15T18:33:41;24.50;49.70